Anyang, China
Current Conditions -  °F | °C
As of 6:00 PM on Tuesday 21 Oct 2014 (Local Time) from ZHCC Reporting Station
Haze Haze  
Wind Chill: 61°   Ceiling: 3000
Heat Index: 61°   Visibility: 1.2mi
Dew Point: 54°   Wind: 2mph
Humidity: 77%   Direction: NA
Pressure: 30.18"   Gusts: NA
Location:  36.08°N, 114.35°E
Report Text: ZHCC 211000Z VRB01MPS 2000 BR OVC030 16/12 Q1022 NOSIG
Loading
Personal Weather Stations






























Interactive Weather Map
Tropical Storm Tracking
New forecast layout! Learn more

10-Day Weather Forecast

Advertisements
Track Severe Weather on mobile